Dinant, Belgium
Current Conditions -  °F | °C
As of 2:55 AM on Tuesday 21 Oct 2014 (Local Time) from EBFS Reporting Station
Broken Clouds Broken Clouds  
Wind Chill: 11°   Ceiling: 4600
Heat Index: 11°   Visibility: 6mi
Dew Point: 10°   Wind: 10mph
Humidity: 94%   Direction: 230°SW
Pressure: 29.97"   Gusts: NA
Location:  50.26°N, 4.91°E
Report Text: EBFS 210055Z 23009KT 9999 FEW030 BKN046 11/10 Q1015 BLU
Loading
Personal Weather Stations






























Interactive Weather Map
Tropical Storm Tracking
New forecast layout! Learn more

10-Day Weather Forecast

Advertisements
Track Severe Weather on mobile